Kezdőlap
METAR-TAF:

METAR-TAF

Repülőterek :

Memmingen, Németország

földrajzi szélesség: 47-59-33N, földrajzi hosszúság: 10-14-37E, magasság: 633 m

Jelenlegi meteorológiai megfigyelések

A jelentés 30 perccel ezelõtt készült, 12:20 UTC
Nyugati szél 15 kt
Hőmérséklet 6°C
Páratartalom 61%
Légköri nyomás 1027 hPa
Látótávolság 10 km, vagy több
Szakadozott felhőzet 3500 lábon
Szakadozott felhőzet 4500 lábon
Borult 5300 lábon

METAR: EDJA 181220Z 26015KT 9999 BKN035 BKN045 OVC053 06/M01 Q1027

Idő: 13:50 (12:50 UTC)

Előrejelzés

A jelentés 1 órával és 50 perccel ezelõtt készült, 11:00 UTC
Az előrejelzés 18-én 12 óra UTC és 18-én 21 óra UTC között érvényes
Nyugat-délnyugati szél 15 kt széllökések: 25 kt
Látótávolság 10 km, vagy több
Szórványos felhőzet 3500 lábon
18-én 15 óra UTC és 18-én 17 óra UTC között fokozatosan kialakuló
Délnyugati szél 10 kt

TAF: EDJA 181100Z 1812/1821 24015G25KT 9999 SCT035 BECMG 1815/1817 23010KT

Meteorológiai megfigyelések és előrejelzések több, mint 4000 repülőtéren (METAR és TAF jelentéseket).

A térképen piros és sárga pontok jelzik az elérhető meteorológiai állomásokat.

Mozgassa az egeret a pont fölött, hogy megjelenjen az állomás neve.

Azután kattintson az időjárási megfigyelések és előrejelzések megtekintéséhez.

A térkép megváltoztatása: kattintson a fekete keresztel jelölt zöld gombra ráközelítéshez, a vonallal jelölt zöld gombra távolításhoz, vagy a zöld nyilakra a szomszédos térképek eléréséhez.


METAR-TAF: